Salt Flat, TX (79847)

11:46 PM CDT on March 27, 2017 (GMT -0500)
Guadalupe Pass | | Change Station
Active Advisory: Wind Advisory

Elev 5453 ft 31.83 °N, 104.80 °W | Updated 55 minutes ago

Partly Cloudy
Partly Cloudy
61 °F
Feels Like 61 °F
N
14
Wind Variable Wind from East
Gusts 24 mph

Today
High -- | Low -- °F
--% Chance of Precip.
Yesterday
High -- | Low -- °F
Precip. -- in
Pressure 29.91 in
Visibility -9999.0 miles
Clouds Few 12000 ft
Dew Point 22 °F
Humidity 22%
Rainfall 0.00 in
Snow Depth Not available.
7:54 AM 8:16 PM
New Moon, 0% visible
METAR KGDP 280351Z AUTO 10012G21KT FEW120 16/M06 A2991 RMK AO2 SLPNO T01611056
Pressure 29.91 in
Visibility -9999.0 miles
Clouds Few 12000 ft
Dew Point 22 °F
Humidity 22%
Rainfall 0.00 in
Snow Depth Not available.
7:54 AM 8:16 PM
New Moon, 0% visible
METAR KGDP 280351Z AUTO 10012G21KT FEW120 16/M06 A2991 RMK AO2 SLPNO T01611056

Get Your Daily Forecast Email!

Thanks for signing up!

Be on the lookout for a verification email in your inbox.

You'll start receiving severe weather alerts in your inbox..

×

10-Day Weather Forecast

Almanac

Astronomy

Mar. 27, 2017 Rise Set
Actual Time
Civil Twilight
Nautical Twilight
Astronomical Twilight
Moon
Length of Visible Light
Length of Day
Tomorrow will be .
, % of the Moon is Illuminated

Today's Extremes

State Highs State Lows

Community

WunderPhotos

Upload Photos

1,962,540 photos uploaded!

WunderBlog® & News

Nearby

Air Quality

  Air Quality AQ Index Pollutant
Not available.

Snow Depth

Station Depth Elevation

Earthquake Activity

City Distance Mag. Time & Date
Minimum magnitude displayed is 2.5.

Earthquake Activity

City Distance Mag. Time & Date
Minimum magnitude displayed is 2.5.

Coastal Water Temperatures

Place Temperature

Stations

Nearby Weather Stations

Station Location Temp. Windchill Dew Point Humidity Wind Precip. Elev Updated Type
                   

Watches & Warnings

Wind Advisory
Issued: 11:58 AM MDT Mar. 27, 2017 – National Weather Service

... Wind Advisory in effect from noon to 8 PM MDT Tuesday...

The National Weather Service in El Paso has issued a Wind Advisory
which is in effect from noon to 8 PM MDT Tuesday.

* Timing... winds will increase in the late morning and attain
maximum speeds between noon and 6 PM.

* Winds... west to southwest will have sustained speeds around 30
mph with gusts to around 50 mph.

* Visibility... blowing dust will reduce the visibility to under a
mile over a few areas.

* Impacts... dangerous driving conditions will result from the low
visibility and strong winds especially for high profile
vehicles. The winds may also blow down small trees and tree
limbs and also blow around loose objects.

Precautionary/preparedness actions...

A Wind Advisory means that winds of 35 mph are expected. Winds
this strong can make driving difficult, especially for high
profile vehicles. Use extra caution.



Rogash